Terminal Aerodrome Forecast
Issued by NWS

Home | Current Version | Previous Version | Text Only | Print | Product List | Glossary On
Versions: 1 2 3 4 5 6 7 8 9 10 11 12 13 14 15 16 17 18 19
000
FTUS41 KBTV 250520
TAFMPV
TAF
KMPV 250520Z 2506/2606 15005KT P6SM BKN080
     FM251400 13010G20KT P6SM VCSH OVC060
     FM251600 12015G26KT 6SM -RA BR OVC045
     FM252100 11009G22KT 5SM -RA BR OVC025
     FM260200 09006KT P6SM VCSH OVC025
     FM260500 08004KT 5SM -RA BR OVC025=

USA.gov is the U.S. government's official web portal to all federal, state and local government web resources and services.